Aérodrome :
LOGIN :

S'inscrire | Disclaimer

   EN    FR    IT 

 










Légende :    VFR   VFR Marginal   IFR   IFR Intensif   IFR Très Intensif
Visi : 
Plafond : 
>= 8 km
>= 3000ft
5 à 8 km
1000 à 3000 ft
1500m à 5 km
500 à 1000 ft
800 à 1500m
200 à 500 ft
< 800m
< 200 ft
Symboles :   Orages  Brouillard  Fortes neiges  Fortes précipitations  Vent > 20 kt
SIGMETs :   Divers  Orages  Givrage  Turbulence  Onde Orograph.  Cendres Volcan.






- Altitude de l'aérodrome : 146 ft
- Code IATA : RKE


EKRK - Roskilde Tune

DERNIER METAR :
  • 051920Z AUTO 23015KT 9999 BKN013/// 06/04 Q1007

METARs EXPIRÉS :
  • 051850Z AUTO 22016KT 9999 OVC013/// 06/04 Q1008
  • 051820Z AUTO 23016KT 9999 BKN013/// 06/04 Q1008
  • 051750Z AUTO 23015KT 9999 BKN012/// 06/04 Q1009
  • 051720Z AUTO 23016KT 9999 BKN011/// 06/04 Q1009
  • 051650Z AUTO 23016KT 9999 BKN010/// 06/04 Q1009

TAF TAF EKRK
Valide du 05 à 18h jusqu'au 06 à 03h UTC


051705Z 0518/0603 23018KT 8000 BKN015
TEMPO 0518/0603 23025G35KT BKN008



MET'MAP, la Météo Aéronautique d'un coup d'oeil ! - Copyright ORBIFLY Décembre 2007 - Disclaimer

ORBIFLY MET'MAP TEAM :

Programmation & Développement : Alexandra Zaïnal
Sur une idée originale de : Baudouin d'Aumeries
Assistance à la programmation : Marc-Olivier Méhu
Soutien technique & logistique : Manuel Goepfert

Contact : metmap@orbifly.com




SOURCES & CREDITS :

   NOAA